createdAt,value
2018-07-15T00:01:58.168Z,101436.72
2018-07-15T00:04:27.253Z,101428.36
2018-07-15T00:06:56.407Z,101428.23
2018-07-15T00:09:25.517Z,101423.77
2018-07-15T00:11:54.674Z,101420.97
2018-07-15T00:14:23.852Z,101423.69
2018-07-15T00:16:52.928Z,101420.09
2018-07-15T00:19:22.008Z,101426.53
2018-07-15T00:21:51.112Z,101426.78
2018-07-15T00:24:20.124Z,101433.30
2018-07-15T00:26:49.246Z,101437.88
2018-07-15T00:29:18.345Z,101425.97
2018-07-15T00:31:47.402Z,101431.42
2018-07-15T00:34:16.496Z,101432.16
2018-07-15T00:36:45.526Z,101429.13
2018-07-15T00:39:14.706Z,101425.89
2018-07-15T00:41:43.974Z,101426.41
2018-07-15T00:44:13.804Z,101423.73
2018-07-15T00:46:43.096Z,101422.33
2018-07-15T00:49:12.105Z,101418.39
2018-07-15T00:51:41.402Z,101417.86
2018-07-15T00:54:10.406Z,101417.38
2018-07-15T00:56:39.392Z,101422.97
2018-07-15T00:59:08.461Z,101423.07
2018-07-15T01:01:37.526Z,101425.73
2018-07-15T01:04:06.834Z,101421.31
2018-07-15T01:06:35.815Z,101419.91
2018-07-15T01:09:07.350Z,101423.16
2018-07-15T01:11:36.466Z,101423.35
2018-07-15T01:14:05.564Z,101424.72
2018-07-15T01:16:34.983Z,101416.41
2018-07-15T01:19:04.063Z,101430.24
2018-07-15T01:21:33.086Z,101426.70
2018-07-15T01:24:02.174Z,101422.43
2018-07-15T01:26:31.516Z,101422.82
2018-07-15T01:29:00.573Z,101419.08
2018-07-15T01:31:29.611Z,101417.23
2018-07-15T01:33:58.642Z,101415.00
2018-07-15T01:36:27.691Z,101418.45
2018-07-15T01:38:56.705Z,101423.21
2018-07-15T01:41:25.767Z,101419.51
2018-07-15T01:43:55.817Z,101420.00
2018-07-15T01:46:24.869Z,101409.45
2018-07-15T01:48:54.363Z,101413.03
2018-07-15T01:51:23.408Z,101409.64
2018-07-15T01:53:52.963Z,101411.41
2018-07-15T01:56:22.024Z,101412.58
2018-07-15T01:58:51.177Z,101421.11
2018-07-15T02:01:20.309Z,101411.16
2018-07-15T02:03:49.343Z,101416.84
2018-07-15T02:06:18.399Z,101414.02
2018-07-15T02:08:47.413Z,101412.38
2018-07-15T02:11:16.529Z,101415.71
2018-07-15T02:13:45.598Z,101418.62
2018-07-15T02:16:14.691Z,101415.00
2018-07-15T02:18:43.733Z,101406.42
2018-07-15T02:21:12.785Z,101411.19
2018-07-15T02:23:41.822Z,101410.20
2018-07-15T02:26:10.828Z,101410.70
2018-07-15T02:28:40.845Z,101408.63
2018-07-15T02:31:09.941Z,101405.56
2018-07-15T02:33:38.944Z,101399.45
2018-07-15T02:36:07.997Z,101405.52
2018-07-15T02:38:36.992Z,101399.56
2018-07-15T02:41:06.159Z,101402.99
2018-07-15T02:43:35.207Z,101399.35
2018-07-15T02:46:04.321Z,101401.20
2018-07-15T02:48:34.048Z,101403.05
2018-07-15T02:51:03.089Z,101403.77
2018-07-15T02:53:32.191Z,101403.77
2018-07-15T02:56:04.391Z,101395.85
2018-07-15T02:58:33.458Z,101399.89
2018-07-15T03:01:02.500Z,101398.20
2018-07-15T03:03:31.539Z,101391.48
2018-07-15T03:06:00.580Z,101403.09
2018-07-15T03:08:29.631Z,101398.41
2018-07-15T03:10:58.718Z,101396.94
2018-07-15T03:13:27.865Z,101399.42
2018-07-15T03:15:56.918Z,101405.63
2018-07-15T03:18:26.056Z,101401.55
2018-07-15T03:20:55.154Z,101403.09
2018-07-15T03:23:24.217Z,101405.02
2018-07-15T03:25:53.408Z,101404.53
2018-07-15T03:28:22.532Z,101406.94
2018-07-15T03:30:51.598Z,101407.69
2018-07-15T03:33:21.098Z,101408.89
2018-07-15T03:35:50.135Z,101407.41
2018-07-15T03:38:19.180Z,101410.53
2018-07-15T03:40:48.353Z,101402.48
2018-07-15T03:43:17.540Z,101400.79
2018-07-15T03:45:46.650Z,101404.00
2018-07-15T03:48:15.706Z,101407.31
2018-07-15T03:50:44.720Z,101411.94
2018-07-15T03:53:14.375Z,101411.84
2018-07-15T03:55:43.438Z,101405.38
2018-07-15T03:58:12.500Z,101409.41
2018-07-15T04:00:41.768Z,101404.06
2018-07-15T04:03:10.767Z,101405.42
2018-07-15T04:05:46.571Z,101406.34
2018-07-15T04:08:15.710Z,101412.03
2018-07-15T04:10:44.854Z,101418.08
2018-07-15T04:13:13.966Z,101412.78
2018-07-15T04:15:43.127Z,101410.41
2018-07-15T04:18:12.159Z,101409.47
2018-07-15T04:20:41.342Z,101408.55
2018-07-15T04:23:10.554Z,101409.05
2018-07-15T04:25:40.226Z,101408.66
2018-07-15T04:28:09.337Z,101415.44
2018-07-15T04:30:38.480Z,101409.58
2018-07-15T04:33:08.166Z,101409.03
2018-07-15T04:35:37.202Z,101403.96
2018-07-15T04:38:06.293Z,101407.97
2018-07-15T04:40:35.351Z,101413.70
2018-07-15T04:43:05.170Z,101412.88
2018-07-15T04:45:34.216Z,101416.15
2018-07-15T04:48:03.316Z,101422.38
2018-07-15T04:50:32.367Z,101421.97
2018-07-15T04:53:01.438Z,101421.65
2018-07-15T04:55:30.427Z,101423.20
2018-07-15T04:57:59.456Z,101416.51
2018-07-15T05:00:28.504Z,101424.41
2018-07-15T05:02:57.611Z,101423.94
2018-07-15T05:05:26.640Z,101430.91
2018-07-15T05:07:55.657Z,101430.75
2018-07-15T05:10:24.708Z,101426.16
2018-07-15T05:12:53.821Z,101433.03
2018-07-15T05:15:22.855Z,101432.12
2018-07-15T05:17:51.868Z,101432.97
2018-07-15T05:20:20.975Z,101436.09
2018-07-15T05:22:50.099Z,101443.35
2018-07-15T05:25:19.228Z,101450.95
2018-07-15T05:27:48.309Z,101441.56
2018-07-15T05:30:17.291Z,101444.58
2018-07-15T05:32:46.331Z,101444.73
2018-07-15T05:35:15.435Z,101448.79
2018-07-15T05:37:44.501Z,101446.84
2018-07-15T05:40:13.557Z,101433.23
2018-07-15T05:42:42.541Z,101436.67
2018-07-15T05:45:11.535Z,101444.05
2018-07-15T05:47:40.623Z,101442.27
2018-07-15T05:50:10.467Z,101442.20
2018-07-15T05:52:39.493Z,101446.59
2018-07-15T05:55:12.529Z,101450.74
2018-07-15T05:57:41.552Z,101441.03
2018-07-15T06:00:10.577Z,101442.14
2018-07-15T06:02:39.692Z,101450.09
2018-07-15T06:05:09.123Z,101441.34
2018-07-15T06:07:38.133Z,101440.87
2018-07-15T06:10:07.314Z,101445.52
2018-07-15T06:12:36.439Z,101442.12
2018-07-15T06:15:05.554Z,101446.38
2018-07-15T06:17:34.754Z,101441.98
2018-07-15T06:20:04.054Z,101435.90
2018-07-15T06:22:33.463Z,101432.92
2018-07-15T06:25:02.546Z,101435.11
2018-07-15T06:27:31.738Z,101435.12
2018-07-15T06:30:01.232Z,101438.27
2018-07-15T06:32:30.382Z,101444.82
2018-07-15T06:34:59.611Z,101445.36
2018-07-15T06:37:28.784Z,101449.66
2018-07-15T06:39:58.215Z,101450.17
2018-07-15T06:42:27.273Z,101445.75
2018-07-15T06:44:56.324Z,101449.20
2018-07-15T06:47:25.625Z,101453.46
2018-07-15T06:49:54.637Z,101446.72
2018-07-15T06:52:24.473Z,101444.69
2018-07-15T06:54:53.527Z,101442.64
2018-07-15T06:57:22.584Z,101435.21
2018-07-15T06:59:51.785Z,101428.12
2018-07-15T07:02:21.099Z,101430.84
2018-07-15T07:04:50.402Z,101431.97
2018-07-15T07:07:19.658Z,101430.19
2018-07-15T07:09:48.732Z,101432.06
2018-07-15T07:12:17.772Z,101439.54
2018-07-15T07:14:46.818Z,101428.48
2018-07-15T07:17:15.919Z,101424.01
2018-07-15T07:19:45.090Z,101427.08
2018-07-15T07:22:14.194Z,101430.25
2018-07-15T07:24:43.253Z,101429.52
2018-07-15T07:27:12.563Z,101427.67
2018-07-15T07:29:41.635Z,101431.62
2018-07-15T07:32:10.699Z,101427.11
2018-07-15T07:34:39.766Z,101421.48
2018-07-15T07:37:08.849Z,101420.25
2018-07-15T07:39:37.966Z,101431.77
2018-07-15T07:42:07.024Z,101422.02
2018-07-15T07:44:36.041Z,101428.59
2018-07-15T07:47:05.478Z,101423.34
2018-07-15T07:49:34.378Z,101426.05
2018-07-15T07:52:03.559Z,101414.58
2018-07-15T07:54:32.562Z,101408.04
2018-07-15T07:57:01.591Z,101405.02
2018-07-15T07:59:30.665Z,101406.84
2018-07-15T08:01:59.723Z,101405.09
2018-07-15T08:04:28.781Z,101412.15
2018-07-15T08:06:57.904Z,101416.48
2018-07-15T08:09:27.070Z,101408.17
2018-07-15T08:11:56.273Z,101415.67
2018-07-15T08:14:25.424Z,101398.97
2018-07-15T08:16:54.787Z,101410.41
2018-07-15T08:19:23.984Z,101406.45
2018-07-15T08:21:53.158Z,101410.87
2018-07-15T08:24:22.290Z,101413.05
2018-07-15T08:26:51.313Z,101404.29
2018-07-15T08:29:20.342Z,101414.45
2018-07-15T08:31:49.647Z,101414.02
2018-07-15T08:34:18.665Z,101419.75
2018-07-15T08:36:47.666Z,101410.91
2018-07-15T08:39:17.369Z,101410.08
2018-07-15T08:41:46.655Z,101410.53
2018-07-15T08:44:15.729Z,101413.62
2018-07-15T08:46:44.797Z,101414.44
2018-07-15T08:49:14.017Z,101415.77
2018-07-15T08:51:43.137Z,101402.10
2018-07-15T08:54:12.264Z,101411.84
2018-07-15T08:56:41.452Z,101399.48
2018-07-15T08:59:10.502Z,101400.38
2018-07-15T09:01:40.446Z,101406.57
2018-07-15T09:04:09.573Z,101401.69
2018-07-15T09:06:38.688Z,101402.62
2018-07-15T09:18:57.763Z,101399.09
2018-07-15T09:21:26.781Z,101399.95
2018-07-15T09:23:55.877Z,101401.30
2018-07-15T09:26:25.041Z,101403.45
2018-07-15T09:28:54.129Z,101399.02
2018-07-15T09:31:23.233Z,101408.77
2018-07-15T09:33:52.391Z,101408.77
2018-07-15T09:36:21.741Z,101407.88
2018-07-15T09:38:51.029Z,101402.13
2018-07-15T09:41:20.984Z,101403.48
2018-07-15T09:43:50.318Z,101395.55
2018-07-15T09:46:19.548Z,101400.83
2018-07-15T09:48:49.086Z,101392.42
2018-07-15T09:51:18.331Z,101389.73
2018-07-15T09:53:47.609Z,101385.68
2018-07-15T09:56:16.737Z,101382.61
2018-07-15T09:58:45.985Z,101385.20
2018-07-15T10:01:15.242Z,101380.83
2018-07-15T10:03:44.373Z,101380.78
2018-07-15T10:06:13.396Z,101376.32
2018-07-15T10:08:42.388Z,101384.64
2018-07-15T10:11:11.388Z,101377.17
2018-07-15T10:13:41.331Z,101375.84
2018-07-15T10:16:10.446Z,101383.84
2018-07-15T10:18:39.575Z,101385.72
2018-07-15T10:21:08.613Z,101380.45
2018-07-15T10:23:38.084Z,101376.88
2018-07-15T10:26:07.152Z,101377.19
2018-07-15T10:28:36.162Z,101377.64
2018-07-15T10:31:05.321Z,101373.17
2018-07-15T10:33:34.419Z,101372.36
2018-07-15T10:36:03.546Z,101375.34
2018-07-15T10:38:33.295Z,101369.05
2018-07-15T10:41:02.956Z,101368.20
2018-07-15T10:43:32.158Z,101365.22
2018-07-15T10:46:01.312Z,101377.62
2018-07-15T10:48:30.610Z,101373.67
2018-07-15T10:50:59.658Z,101371.45
2018-07-15T10:53:28.721Z,101365.27
2018-07-15T10:55:57.775Z,101356.38
2018-07-15T10:58:26.930Z,101356.31
2018-07-15T11:00:55.957Z,101354.05
2018-07-15T11:03:25.038Z,101359.50
2018-07-15T11:05:54.124Z,101354.27
2018-07-15T11:08:23.237Z,101348.08
2018-07-15T11:10:52.817Z,101348.50
2018-07-15T11:13:22.314Z,101343.55
2018-07-15T11:15:51.436Z,101345.65
2018-07-15T11:18:20.481Z,101346.48
2018-07-15T11:20:49.860Z,101344.75
2018-07-15T11:23:19.018Z,101345.16
2018-07-15T11:25:48.044Z,101338.92
2018-07-15T11:28:17.223Z,101338.80
2018-07-15T11:30:46.338Z,101328.95
2018-07-15T11:33:15.447Z,101331.84
2018-07-15T11:35:44.524Z,101329.73
2018-07-15T11:38:13.944Z,101326.48
2018-07-15T11:40:43.160Z,101333.94
2018-07-15T11:43:12.284Z,101319.85
2018-07-15T11:45:42.072Z,101325.80
2018-07-15T11:48:11.376Z,101317.74
2018-07-15T11:50:40.417Z,101318.88
2018-07-15T11:53:09.466Z,101318.76
2018-07-15T11:55:38.767Z,101306.19
2018-07-15T11:58:07.841Z,101310.42
2018-07-15T12:00:37.034Z,101302.97
2018-07-15T12:03:06.100Z,101308.72
2018-07-15T12:05:35.230Z,101305.43
2018-07-15T12:08:04.280Z,101299.55
2018-07-15T12:10:33.428Z,101297.83
2018-07-15T12:13:02.478Z,101294.07
2018-07-15T12:15:31.531Z,101298.86
2018-07-15T12:18:00.659Z,101288.92
2018-07-15T12:20:29.763Z,101283.69
2018-07-15T12:22:58.817Z,101289.52
2018-07-15T12:25:27.801Z,101279.88
2018-07-15T12:27:56.860Z,101281.08
2018-07-15T12:30:25.892Z,101280.05
2018-07-15T12:32:55.060Z,101278.06
2018-07-15T12:35:24.131Z,101269.63
2018-07-15T12:37:53.265Z,101269.27
2018-07-15T12:40:22.358Z,101278.60
2018-07-15T12:42:51.640Z,101275.13
2018-07-15T12:45:20.796Z,101266.94
2018-07-15T12:47:49.837Z,101273.58
2018-07-15T12:50:18.943Z,101274.89
2018-07-15T12:52:47.973Z,101259.78
2018-07-15T12:55:17.155Z,101254.99
2018-07-15T12:57:46.493Z,101262.31
2018-07-15T13:00:15.678Z,101269.02
2018-07-15T13:02:44.702Z,101257.13
2018-07-15T13:05:13.740Z,101253.48
2018-07-15T13:07:43.176Z,101249.56
2018-07-15T13:10:12.198Z,101260.55
2018-07-15T13:12:41.296Z,101257.18
2018-07-15T13:15:10.460Z,101249.70
2018-07-15T13:17:39.524Z,101251.71
2018-07-15T13:20:09.574Z,101243.55
2018-07-15T13:22:39.039Z,101246.42
2018-07-15T13:25:08.325Z,101240.41
2018-07-15T13:27:38.041Z,101242.69
2018-07-15T13:30:07.170Z,101243.08
2018-07-15T13:32:36.411Z,101231.20
2018-07-15T13:35:05.803Z,101240.56
2018-07-15T13:37:35.346Z,101237.53
2018-07-15T13:40:04.407Z,101245.00
2018-07-15T13:42:33.455Z,101240.03
2018-07-15T13:45:02.483Z,101233.92
2018-07-15T13:47:31.594Z,101230.92
2018-07-15T13:50:00.640Z,101229.63
2018-07-15T13:52:33.289Z,101227.47
2018-07-15T13:55:03.041Z,101233.67
2018-07-15T13:57:32.145Z,101224.23
2018-07-15T14:00:01.230Z,101224.77
2018-07-15T14:02:30.882Z,101218.45
2018-07-15T14:05:00.002Z,101217.89
2018-07-15T14:07:29.205Z,101212.08
2018-07-15T14:09:58.270Z,101209.06
2018-07-15T14:12:28.483Z,101211.16
2018-07-15T14:14:57.638Z,101203.39
2018-07-15T14:17:26.814Z,101200.98
2018-07-15T14:19:55.861Z,101202.63
2018-07-15T14:22:25.034Z,101205.12
2018-07-15T14:24:54.104Z,101201.58
2018-07-15T14:27:23.189Z,101192.14
2018-07-15T14:29:52.355Z,101183.02
2018-07-15T14:32:21.460Z,101190.38
2018-07-15T14:34:50.600Z,101185.01
2018-07-15T14:37:19.868Z,101178.56
2018-07-15T14:39:48.886Z,101184.73
2018-07-15T14:42:18.477Z,101174.09
2018-07-15T14:44:47.470Z,101178.06
2018-07-15T14:47:16.602Z,101169.05
2018-07-15T14:49:45.746Z,101170.95
2018-07-15T14:52:15.060Z,101166.47
2018-07-15T14:54:44.246Z,101167.07
2018-07-15T14:57:13.294Z,101165.16
2018-07-15T14:59:42.310Z,101159.91
2018-07-15T15:02:11.352Z,101152.44
2018-07-15T15:04:40.447Z,101151.92
2018-07-15T15:07:09.635Z,101148.58
2018-07-15T15:09:38.706Z,101154.01
2018-07-15T15:12:08.073Z,101148.22
2018-07-15T15:14:37.127Z,101153.91
2018-07-15T15:17:07.426Z,101145.94
2018-07-15T15:19:36.524Z,101139.31
2018-07-15T15:22:05.571Z,101143.38
2018-07-15T15:24:35.019Z,101138.80
2018-07-15T15:27:04.124Z,101140.50
2018-07-15T15:29:33.265Z,101138.98
2018-07-15T15:32:02.643Z,101142.56
2018-07-15T15:34:31.921Z,101137.47
2018-07-15T15:37:01.021Z,101137.64
2018-07-15T15:39:30.282Z,101131.23
2018-07-15T15:41:59.567Z,101137.10
2018-07-15T15:44:28.628Z,101125.29
2018-07-15T15:46:57.724Z,101128.77
2018-07-15T15:49:26.814Z,101123.23
2018-07-15T15:51:56.781Z,101129.02
2018-07-15T15:54:33.249Z,101123.44
2018-07-15T15:57:02.420Z,101115.16
2018-07-15T15:59:31.458Z,101116.16
2018-07-15T16:02:00.850Z,101110.70
2018-07-15T16:04:30.047Z,101110.00
2018-07-15T16:07:02.261Z,101097.16
2018-07-15T16:09:31.240Z,101094.83
2018-07-15T16:12:00.573Z,101101.56
2018-07-15T16:14:29.744Z,101094.70
2018-07-15T16:16:59.009Z,101093.45
2018-07-15T16:19:31.257Z,101096.11
2018-07-15T16:22:01.052Z,101102.38
2018-07-15T16:24:30.168Z,101098.42
2018-07-15T16:26:59.326Z,101098.95
2018-07-15T16:29:28.428Z,101102.28
2018-07-15T16:31:57.663Z,101101.91
2018-07-15T16:34:27.013Z,101093.53
2018-07-15T16:36:56.425Z,101092.77
2018-07-15T16:39:25.465Z,101105.17
2018-07-15T16:41:58.454Z,101102.50
2018-07-15T16:44:34.384Z,101104.78
2018-07-15T16:47:03.677Z,101109.91
2018-07-15T16:49:32.809Z,101110.83
2018-07-15T16:52:01.882Z,101102.53
2018-07-15T16:54:31.247Z,101098.55
2018-07-15T16:57:00.361Z,101098.98
2018-07-15T16:59:29.408Z,101100.73
2018-07-15T17:01:58.532Z,101085.77
2018-07-15T17:04:27.641Z,101092.94
2018-07-15T17:06:56.721Z,101090.71
2018-07-15T17:09:25.825Z,101087.97
2018-07-15T17:11:54.920Z,101094.05
2018-07-15T17:14:24.018Z,101099.58
2018-07-15T17:16:53.277Z,101093.53
2018-07-15T17:19:22.501Z,101096.92
2018-07-15T17:21:51.630Z,101098.64
2018-07-15T17:24:20.938Z,101098.45
2018-07-15T17:26:49.972Z,101098.91
2018-07-15T17:29:19.276Z,101092.98
2018-07-15T17:31:48.396Z,101099.11
2018-07-15T17:34:17.572Z,101096.66
2018-07-15T17:36:46.900Z,101097.88
2018-07-15T17:39:16.054Z,101100.92
2018-07-15T17:41:45.272Z,101100.63
2018-07-15T17:44:14.854Z,101103.29
2018-07-15T17:46:44.380Z,101099.86
2018-07-15T17:49:13.833Z,101097.78
2018-07-15T17:51:43.477Z,101098.95
2018-07-15T17:54:12.672Z,101102.55
2018-07-15T17:56:41.933Z,101100.12
2018-07-15T17:59:12.062Z,101096.58
2018-07-15T18:01:41.150Z,101096.05
2018-07-15T18:04:10.472Z,101101.41
2018-07-15T18:06:39.582Z,101098.09
2018-07-15T18:09:08.724Z,101100.02
2018-07-15T18:11:37.826Z,101098.10
2018-07-15T18:14:07.096Z,101110.53
2018-07-15T18:16:36.156Z,101098.02
2018-07-15T18:19:05.470Z,101098.94
2018-07-15T18:21:34.553Z,101100.95
2018-07-15T18:24:03.753Z,101108.93
2018-07-15T18:26:32.907Z,101109.86
2018-07-15T18:29:03.439Z,101117.98
2018-07-15T18:31:33.071Z,101115.77
2018-07-15T18:34:02.324Z,101117.22
2018-07-15T18:36:31.376Z,101120.74
2018-07-15T18:39:00.612Z,101112.96
2018-07-15T18:41:29.782Z,101124.89
2018-07-15T18:43:58.948Z,101126.31
2018-07-15T18:46:28.010Z,101129.91
2018-07-15T18:48:57.069Z,101123.18
2018-07-15T18:51:26.226Z,101129.85
2018-07-15T18:53:55.308Z,101128.05
2018-07-15T18:56:24.423Z,101129.66
2018-07-15T18:58:53.522Z,101134.11
2018-07-15T19:01:22.668Z,101140.12
2018-07-15T19:03:51.919Z,101143.55
2018-07-15T19:06:21.035Z,101140.65
2018-07-15T19:08:50.262Z,101136.55
2018-07-15T19:11:19.346Z,101138.38
2018-07-15T19:13:48.507Z,101146.61
2018-07-15T19:16:17.594Z,101145.06
2018-07-15T19:18:46.775Z,101147.77
2018-07-15T19:21:15.881Z,101147.48
2018-07-15T19:23:45.912Z,101149.67
2018-07-15T19:26:14.964Z,101139.98
2018-07-15T19:28:44.123Z,101144.42
2018-07-15T19:31:13.189Z,101150.71
2018-07-15T19:33:42.739Z,101154.35
2018-07-15T19:36:12.367Z,101160.22
2018-07-15T19:38:41.464Z,101153.23
2018-07-15T19:41:11.017Z,101155.42
2018-07-15T19:43:40.356Z,101153.28
2018-07-15T19:46:09.460Z,101157.27
2018-07-15T19:48:38.662Z,101160.88
2018-07-15T19:51:08.032Z,101159.45
2018-07-15T19:53:37.150Z,101153.79
2018-07-15T19:56:06.487Z,101160.01
2018-07-15T19:58:35.631Z,101160.98
2018-07-15T20:01:04.882Z,101160.98
2018-07-15T20:03:33.945Z,101162.40
2018-07-15T20:06:03.047Z,101161.03
2018-07-15T20:08:32.235Z,101156.64
2018-07-15T20:11:01.336Z,101161.03
2018-07-15T20:13:31.540Z,101154.91
2018-07-15T20:16:00.797Z,101161.66
2018-07-15T20:18:29.876Z,101158.59
2018-07-15T20:20:59.090Z,101161.86
2018-07-15T20:23:28.522Z,101167.22
2018-07-15T20:25:57.544Z,101167.67
2018-07-15T20:28:26.638Z,101158.75
2018-07-15T20:30:55.820Z,101164.47
2018-07-15T20:33:25.003Z,101159.20
2018-07-15T20:35:54.152Z,101160.22
2018-07-15T20:38:23.335Z,101165.97
2018-07-15T20:40:52.448Z,101156.25
2018-07-15T20:43:21.538Z,101153.72
2018-07-15T20:45:50.619Z,101155.11
2018-07-15T20:48:19.943Z,101145.95
2018-07-15T20:50:49.498Z,101143.73
2018-07-15T20:53:18.574Z,101151.67
2018-07-15T20:55:47.633Z,101153.05
2018-07-15T20:58:16.685Z,101156.53
2018-07-15T21:00:45.913Z,101157.46
2018-07-15T21:03:15.059Z,101158.33
2018-07-15T21:05:44.201Z,101156.14
2018-07-15T21:08:13.272Z,101154.83
2018-07-15T21:23:43.314Z,101165.13
2018-07-15T21:26:12.630Z,101170.48
2018-07-15T21:28:41.847Z,101166.45
2018-07-15T21:31:11.027Z,101165.59
2018-07-15T21:33:40.089Z,101171.34
2018-07-15T21:36:09.172Z,101167.39
2018-07-15T21:38:38.242Z,101171.34
2018-07-15T21:41:07.502Z,101174.45
2018-07-15T21:43:36.842Z,101175.78
2018-07-15T21:46:06.028Z,101176.19
2018-07-15T21:48:35.144Z,101177.08
2018-07-15T21:51:04.836Z,101185.02
2018-07-15T21:53:34.073Z,101183.23
2018-07-15T21:56:03.541Z,101190.30
2018-07-15T21:58:32.677Z,101187.65
2018-07-15T22:01:01.750Z,101194.69
2018-07-15T22:03:30.845Z,101199.09
2018-07-15T22:05:59.949Z,101199.97
2018-07-15T22:08:45.123Z,101197.78
2018-07-15T22:11:14.436Z,101199.54
2018-07-15T22:13:43.567Z,101206.59
2018-07-15T22:16:12.718Z,101198.61
2018-07-15T22:18:41.793Z,101199.07
2018-07-15T22:21:11.097Z,101198.59
2018-07-15T22:23:40.194Z,101203.00
2018-07-15T22:26:09.310Z,101206.97
2018-07-15T22:28:38.526Z,101206.05
2018-07-15T22:31:07.613Z,101206.92
2018-07-15T22:33:36.661Z,101203.36
2018-07-15T22:36:05.839Z,101198.12
2018-07-15T22:38:34.997Z,101197.70
2018-07-15T22:41:04.013Z,101197.70
2018-07-15T22:43:33.095Z,101198.12
2018-07-15T22:46:02.169Z,101195.94
2018-07-15T22:48:31.247Z,101197.66
2018-07-15T22:51:00.365Z,101203.37
2018-07-15T22:53:30.065Z,101203.34
2018-07-15T22:55:59.149Z,101204.18
2018-07-15T22:58:28.245Z,101204.14
2018-07-15T23:00:57.337Z,101202.84
2018-07-15T23:03:26.437Z,101200.65
2018-07-15T23:06:07.126Z,101205.05
2018-07-15T23:08:36.315Z,101199.78
2018-07-15T23:11:05.383Z,101209.43
2018-07-15T23:13:34.401Z,101206.27
2018-07-15T23:16:03.633Z,101200.56
2018-07-15T23:18:32.696Z,101201.84
2018-07-15T23:21:02.042Z,101200.05
2018-07-15T23:23:31.108Z,101196.97
2018-07-15T23:26:00.177Z,101189.97
2018-07-15T23:28:29.274Z,101186.48
2018-07-15T23:30:59.131Z,101181.95
2018-07-15T23:33:28.109Z,101189.42
2018-07-15T23:35:57.176Z,101195.64
2018-07-15T23:38:26.237Z,101193.30
2018-07-15T23:40:56.046Z,101195.20
2018-07-15T23:43:25.111Z,101197.20
2018-07-15T23:45:54.197Z,101199.75
2018-07-15T23:48:23.335Z,101198.98
2018-07-15T23:50:52.395Z,101201.97
2018-07-15T23:53:21.466Z,101199.41
2018-07-15T23:55:50.486Z,101200.73
2018-07-15T23:58:19.576Z,101200.31
